sensor_id;sensor_type;location;lat;lon;timestamp;P1;durP1;ratioP1;P2;durP2;ratioP2
8704;SDS011;4389;41.932;25.904;2023-06-10T00:00:39;12.97;;;4.80;;
8704;SDS011;4389;41.932;25.904;2023-06-10T00:03:07;7.80;;;4.53;;
8704;SDS011;4389;41.932;25.904;2023-06-10T00:05:34;6.70;;;4.80;;
8704;SDS011;4389;41.932;25.904;2023-06-10T00:08:02;7.23;;;4.13;;
8704;SDS011;4389;41.932;25.904;2023-06-10T00:10:32;5.63;;;4.30;;
8704;SDS011;4389;41.932;25.904;2023-06-10T00:13:00;7.97;;;4.67;;
8704;SDS011;4389;41.932;25.904;2023-06-10T00:15:27;6.23;;;4.47;;
8704;SDS011;4389;41.932;25.904;2023-06-10T00:17:54;7.27;;;4.50;;
8704;SDS011;4389;41.932;25.904;2023-06-10T00:20:21;6.60;;;4.73;;
8704;SDS011;4389;41.932;25.904;2023-06-10T00:22:50;4.67;;;4.20;;
8704;SDS011;4389;41.932;25.904;2023-06-10T00:25:18;4.60;;;3.87;;
8704;SDS011;4389;41.932;25.904;2023-06-10T00:27:45;4.23;;;3.80;;
8704;SDS011;4389;41.932;25.904;2023-06-10T00:30:12;7.80;;;4.33;;
8704;SDS011;4389;41.932;25.904;2023-06-10T00:32:39;5.93;;;4.37;;
8704;SDS011;4389;41.932;25.904;2023-06-10T00:35:07;11.10;;;5.13;;
8704;SDS011;4389;41.932;25.904;2023-06-10T00:37:34;8.83;;;6.20;;
8704;SDS011;4389;41.932;25.904;2023-06-10T00:40:01;9.87;;;6.60;;
8704;SDS011;4389;41.932;25.904;2023-06-10T00:42:30;6.27;;;4.30;;
8704;SDS011;4389;41.932;25.904;2023-06-10T00:44:57;7.97;;;6.13;;
8704;SDS011;4389;41.932;25.904;2023-06-10T00:47:24;14.23;;;5.00;;
8704;SDS011;4389;41.932;25.904;2023-06-10T00:49:52;5.77;;;4.53;;
8704;SDS011;4389;41.932;25.904;2023-06-10T00:52:19;6.73;;;4.20;;
8704;SDS011;4389;41.932;25.904;2023-06-10T00:54:50;6.57;;;4.40;;
8704;SDS011;4389;41.932;25.904;2023-06-10T00:57:18;5.63;;;4.37;;
8704;SDS011;4389;41.932;25.904;2023-06-10T00:59:47;8.77;;;5.77;;
8704;SDS011;4389;41.932;25.904;2023-06-10T01:02:15;7.90;;;4.07;;
8704;SDS011;4389;41.932;25.904;2023-06-10T01:04:42;7.97;;;4.27;;
8704;SDS011;4389;41.932;25.904;2023-06-10T01:07:10;5.00;;;4.17;;
8704;SDS011;4389;41.932;25.904;2023-06-10T01:09:45;6.03;;;4.03;;
8704;SDS011;4389;41.932;25.904;2023-06-10T01:12:19;6.10;;;4.30;;
8704;SDS011;4389;41.932;25.904;2023-06-10T01:14:54;10.03;;;4.37;;
8704;SDS011;4389;41.932;25.904;2023-06-10T01:17:21;9.30;;;4.67;;
8704;SDS011;4389;41.932;25.904;2023-06-10T01:19:53;5.00;;;4.17;;
8704;SDS011;4389;41.932;25.904;2023-06-10T01:22:23;6.57;;;4.03;;
8704;SDS011;4389;41.932;25.904;2023-06-10T01:24:51;5.87;;;4.30;;
8704;SDS011;4389;41.932;25.904;2023-06-10T01:27:19;7.10;;;4.50;;
8704;SDS011;4389;41.932;25.904;2023-06-10T01:29:50;9.77;;;4.13;;
8704;SDS011;4389;41.932;25.904;2023-06-10T01:32:29;6.50;;;4.67;;
8704;SDS011;4389;41.932;25.904;2023-06-10T01:35:00;10.20;;;4.20;;
8704;SDS011;4389;41.932;25.904;2023-06-10T01:37:30;8.80;;;4.60;;
8704;SDS011;4389;41.932;25.904;2023-06-10T01:39:58;14.57;;;4.50;;
8704;SDS011;4389;41.932;25.904;2023-06-10T01:42:26;11.93;;;4.40;;
8704;SDS011;4389;41.932;25.904;2023-06-10T01:44:57;9.03;;;4.43;;
8704;SDS011;4389;41.932;25.904;2023-06-10T01:47:24;7.97;;;4.23;;
8704;SDS011;4389;41.932;25.904;2023-06-10T01:49:51;5.70;;;4.40;;
8704;SDS011;4389;41.932;25.904;2023-06-10T01:52:18;8.43;;;4.90;;
8704;SDS011;4389;41.932;25.904;2023-06-10T01:54:46;5.30;;;4.53;;
8704;SDS011;4389;41.932;25.904;2023-06-10T01:57:13;6.43;;;4.43;;
8704;SDS011;4389;41.932;25.904;2023-06-10T01:59:39;7.70;;;4.60;;
8704;SDS011;4389;41.932;25.904;2023-06-10T02:02:09;8.83;;;4.40;;
8704;SDS011;4389;41.932;25.904;2023-06-10T02:04:36;9.07;;;4.23;;
8704;SDS011;4389;41.932;25.904;2023-06-10T02:07:03;8.60;;;4.90;;
8704;SDS011;4389;41.932;25.904;2023-06-10T02:09:31;10.47;;;4.60;;
8704;SDS011;4389;41.932;25.904;2023-06-10T02:12:01;6.17;;;4.40;;
8704;SDS011;4389;41.932;25.904;2023-06-10T02:14:29;5.90;;;4.53;;
8704;SDS011;4389;41.932;25.904;2023-06-10T02:16:55;6.33;;;4.00;;
8704;SDS011;4389;41.932;25.904;2023-06-10T02:19:22;8.43;;;4.20;;
8704;SDS011;4389;41.932;25.904;2023-06-10T02:21:50;10.23;;;5.40;;
8704;SDS011;4389;41.932;25.904;2023-06-10T02:24:17;6.47;;;4.73;;
8704;SDS011;4389;41.932;25.904;2023-06-10T02:26:44;8.23;;;4.17;;
8704;SDS011;4389;41.932;25.904;2023-06-10T02:29:14;8.30;;;4.53;;
8704;SDS011;4389;41.932;25.904;2023-06-10T02:31:41;18.67;;;4.90;;
8704;SDS011;4389;41.932;25.904;2023-06-10T02:34:08;5.00;;;4.27;;
8704;SDS011;4389;41.932;25.904;2023-06-10T02:36:35;7.37;;;4.80;;
8704;SDS011;4389;41.932;25.904;2023-06-10T02:39:02;9.80;;;4.87;;
8704;SDS011;4389;41.932;25.904;2023-06-10T02:41:29;9.87;;;4.63;;
8704;SDS011;4389;41.932;25.904;2023-06-10T02:43:56;4.90;;;4.03;;
8704;SDS011;4389;41.932;25.904;2023-06-10T02:46:24;7.10;;;5.00;;
8704;SDS011;4389;41.932;25.904;2023-06-10T02:48:51;6.43;;;4.40;;
8704;SDS011;4389;41.932;25.904;2023-06-10T02:51:18;15.03;;;4.63;;
8704;SDS011;4389;41.932;25.904;2023-06-10T02:53:45;16.63;;;5.03;;
8704;SDS011;4389;41.932;25.904;2023-06-10T02:56:13;6.73;;;4.30;;
8704;SDS011;4389;41.932;25.904;2023-06-10T02:58:42;5.47;;;4.17;;
8704;SDS011;4389;41.932;25.904;2023-06-10T03:01:09;12.87;;;5.00;;
8704;SDS011;4389;41.932;25.904;2023-06-10T03:03:37;4.87;;;3.80;;
8704;SDS011;4389;41.932;25.904;2023-06-10T03:06:07;8.53;;;4.13;;
8704;SDS011;4389;41.932;25.904;2023-06-10T03:08:35;5.40;;;4.13;;
8704;SDS011;4389;41.932;25.904;2023-06-10T03:11:02;7.47;;;4.07;;
8704;SDS011;4389;41.932;25.904;2023-06-10T03:13:29;7.47;;;4.17;;
8704;SDS011;4389;41.932;25.904;2023-06-10T03:15:57;7.13;;;4.60;;
8704;SDS011;4389;41.932;25.904;2023-06-10T03:18:25;9.97;;;3.97;;
8704;SDS011;4389;41.932;25.904;2023-06-10T03:20:54;8.50;;;4.20;;
8704;SDS011;4389;41.932;25.904;2023-06-10T03:23:22;5.93;;;3.60;;
8704;SDS011;4389;41.932;25.904;2023-06-10T03:25:49;14.23;;;3.90;;
8704;SDS011;4389;41.932;25.904;2023-06-10T03:28:16;5.47;;;4.10;;
8704;SDS011;4389;41.932;25.904;2023-06-10T03:30:42;7.27;;;3.57;;
8704;SDS011;4389;41.932;25.904;2023-06-10T03:33:09;7.10;;;3.47;;
8704;SDS011;4389;41.932;25.904;2023-06-10T03:35:36;8.27;;;4.80;;
8704;SDS011;4389;41.932;25.904;2023-06-10T03:38:05;5.67;;;4.00;;
8704;SDS011;4389;41.932;25.904;2023-06-10T03:40:32;8.33;;;4.13;;
8704;SDS011;4389;41.932;25.904;2023-06-10T03:42:59;13.93;;;4.30;;
8704;SDS011;4389;41.932;25.904;2023-06-10T03:45:26;19.67;;;5.00;;
8704;SDS011;4389;41.932;25.904;2023-06-10T03:47:54;12.97;;;4.83;;
8704;SDS011;4389;41.932;25.904;2023-06-10T03:50:21;6.80;;;4.07;;
8704;SDS011;4389;41.932;25.904;2023-06-10T03:52:49;6.60;;;4.53;;
8704;SDS011;4389;41.932;25.904;2023-06-10T03:55:18;7.47;;;4.33;;
8704;SDS011;4389;41.932;25.904;2023-06-10T03:57:47;9.70;;;5.27;;
8704;SDS011;4389;41.932;25.904;2023-06-10T04:00:14;8.43;;;5.10;;
8704;SDS011;4389;41.932;25.904;2023-06-10T04:02:42;8.60;;;5.03;;
8704;SDS011;4389;41.932;25.904;2023-06-10T04:05:13;8.10;;;4.80;;
8704;SDS011;4389;41.932;25.904;2023-06-10T04:07:40;8.47;;;5.13;;
8704;SDS011;4389;41.932;25.904;2023-06-10T04:10:09;8.30;;;5.03;;
8704;SDS011;4389;41.932;25.904;2023-06-10T04:12:38;9.93;;;5.73;;
8704;SDS011;4389;41.932;25.904;2023-06-10T04:15:05;8.83;;;5.87;;
8704;SDS011;4389;41.932;25.904;2023-06-10T04:17:32;8.43;;;5.03;;
8704;SDS011;4389;41.932;25.904;2023-06-10T04:19:59;16.27;;;6.57;;
8704;SDS011;4389;41.932;25.904;2023-06-10T04:22:28;9.20;;;4.80;;
8704;SDS011;4389;41.932;25.904;2023-06-10T04:24:55;7.67;;;5.27;;
8704;SDS011;4389;41.932;25.904;2023-06-10T04:27:22;9.70;;;5.57;;
8704;SDS011;4389;41.932;25.904;2023-06-10T04:29:50;12.63;;;5.83;;
8704;SDS011;4389;41.932;25.904;2023-06-10T04:32:17;7.07;;;5.30;;
8704;SDS011;4389;41.932;25.904;2023-06-10T04:34:44;14.97;;;5.87;;
8704;SDS011;4389;41.932;25.904;2023-06-10T04:37:11;12.07;;;6.27;;
8704;SDS011;4389;41.932;25.904;2023-06-10T04:39:38;7.63;;;6.50;;
8704;SDS011;4389;41.932;25.904;2023-06-10T04:42:06;11.67;;;6.53;;
8704;SDS011;4389;41.932;25.904;2023-06-10T04:44:35;9.17;;;6.23;;
8704;SDS011;4389;41.932;25.904;2023-06-10T04:47:04;9.80;;;5.90;;
8704;SDS011;4389;41.932;25.904;2023-06-10T04:49:32;10.77;;;6.07;;
8704;SDS011;4389;41.932;25.904;2023-06-10T04:52:00;10.83;;;5.60;;
8704;SDS011;4389;41.932;25.904;2023-06-10T04:54:29;8.63;;;5.37;;
8704;SDS011;4389;41.932;25.904;2023-06-10T04:56:57;9.33;;;5.03;;
8704;SDS011;4389;41.932;25.904;2023-06-10T04:59:24;8.23;;;5.67;;
8704;SDS011;4389;41.932;25.904;2023-06-10T05:01:51;12.47;;;5.50;;
8704;SDS011;4389;41.932;25.904;2023-06-10T05:04:20;8.07;;;5.23;;
8704;SDS011;4389;41.932;25.904;2023-06-10T05:06:46;16.37;;;6.03;;
8704;SDS011;4389;41.932;25.904;2023-06-10T05:09:13;10.10;;;5.40;;
8704;SDS011;4389;41.932;25.904;2023-06-10T05:11:40;8.87;;;5.13;;
8704;SDS011;4389;41.932;25.904;2023-06-10T05:14:07;6.83;;;5.63;;
8704;SDS011;4389;41.932;25.904;2023-06-10T05:16:34;7.63;;;5.33;;
8704;SDS011;4389;41.932;25.904;2023-06-10T05:19:02;9.53;;;6.60;;
8704;SDS011;4389;41.932;25.904;2023-06-10T05:21:30;9.90;;;5.67;;
8704;SDS011;4389;41.932;25.904;2023-06-10T05:23:57;11.30;;;5.57;;
8704;SDS011;4389;41.932;25.904;2023-06-10T05:26:24;9.70;;;5.27;;
8704;SDS011;4389;41.932;25.904;2023-06-10T05:28:51;9.13;;;5.60;;
8704;SDS011;4389;41.932;25.904;2023-06-10T05:31:19;10.50;;;6.47;;
8704;SDS011;4389;41.932;25.904;2023-06-10T05:33:45;6.63;;;5.33;;
8704;SDS011;4389;41.932;25.904;2023-06-10T05:36:12;12.63;;;6.50;;
8704;SDS011;4389;41.932;25.904;2023-06-10T05:38:41;9.17;;;6.10;;
8704;SDS011;4389;41.932;25.904;2023-06-10T05:41:07;8.10;;;5.73;;
8704;SDS011;4389;41.932;25.904;2023-06-10T05:43:35;8.60;;;5.27;;
8704;SDS011;4389;41.932;25.904;2023-06-10T05:46:01;7.33;;;5.83;;
8704;SDS011;4389;41.932;25.904;2023-06-10T05:48:28;13.30;;;6.50;;
8704;SDS011;4389;41.932;25.904;2023-06-10T05:50:55;23.33;;;6.83;;
8704;SDS011;4389;41.932;25.904;2023-06-10T05:53:22;8.10;;;6.10;;
8704;SDS011;4389;41.932;25.904;2023-06-10T05:55:50;9.73;;;6.10;;
8704;SDS011;4389;41.932;25.904;2023-06-10T05:58:19;10.03;;;6.13;;
8704;SDS011;4389;41.932;25.904;2023-06-10T06:00:46;16.63;;;7.17;;
8704;SDS011;4389;41.932;25.904;2023-06-10T06:03:13;9.00;;;6.70;;
8704;SDS011;4389;41.932;25.904;2023-06-10T06:05:40;8.87;;;6.23;;
8704;SDS011;4389;41.932;25.904;2023-06-10T06:08:07;10.80;;;6.33;;
8704;SDS011;4389;41.932;25.904;2023-06-10T06:10:34;11.83;;;6.27;;
8704;SDS011;4389;41.932;25.904;2023-06-10T06:13:02;12.80;;;6.63;;
8704;SDS011;4389;41.932;25.904;2023-06-10T06:15:29;9.70;;;6.00;;
8704;SDS011;4389;41.932;25.904;2023-06-10T06:17:56;7.13;;;6.43;;
8704;SDS011;4389;41.932;25.904;2023-06-10T06:20:23;11.77;;;7.53;;
8704;SDS011;4389;41.932;25.904;2023-06-10T06:22:50;12.07;;;6.93;;
8704;SDS011;4389;41.932;25.904;2023-06-10T06:25:17;11.27;;;6.67;;
8704;SDS011;4389;41.932;25.904;2023-06-10T06:27:44;8.20;;;6.33;;
8704;SDS011;4389;41.932;25.904;2023-06-10T06:30:12;64.10;;;10.50;;
8704;SDS011;4389;41.932;25.904;2023-06-10T06:32:39;7.17;;;5.83;;
8704;SDS011;4389;41.932;25.904;2023-06-10T06:35:06;10.63;;;6.57;;
8704;SDS011;4389;41.932;25.904;2023-06-10T06:37:34;9.40;;;6.57;;
8704;SDS011;4389;41.932;25.904;2023-06-10T06:40:02;12.17;;;6.07;;
8704;SDS011;4389;41.932;25.904;2023-06-10T06:42:29;14.30;;;6.80;;
8704;SDS011;4389;41.932;25.904;2023-06-10T06:44:56;8.23;;;5.97;;
8704;SDS011;4389;41.932;25.904;2023-06-10T06:47:25;8.03;;;5.27;;
8704;SDS011;4389;41.932;25.904;2023-06-10T06:49:52;8.27;;;5.10;;
8704;SDS011;4389;41.932;25.904;2023-06-10T06:52:19;8.20;;;5.40;;
8704;SDS011;4389;41.932;25.904;2023-06-10T06:54:47;7.83;;;5.43;;
8704;SDS011;4389;41.932;25.904;2023-06-10T06:57:14;17.43;;;6.40;;
8704;SDS011;4389;41.932;25.904;2023-06-10T06:59:41;7.40;;;5.90;;
8704;SDS011;4389;41.932;25.904;2023-06-10T07:02:08;10.53;;;5.73;;
8704;SDS011;4389;41.932;25.904;2023-06-10T07:04:36;7.33;;;5.23;;
8704;SDS011;4389;41.932;25.904;2023-06-10T07:07:04;7.47;;;5.27;;
8704;SDS011;4389;41.932;25.904;2023-06-10T07:09:31;12.60;;;7.10;;
8704;SDS011;4389;41.932;25.904;2023-06-10T07:11:58;12.37;;;5.23;;
8704;SDS011;4389;41.932;25.904;2023-06-10T07:14:24;10.50;;;4.90;;
8704;SDS011;4389;41.932;25.904;2023-06-10T07:16:51;6.60;;;5.27;;
8704;SDS011;4389;41.932;25.904;2023-06-10T07:19:18;10.30;;;5.10;;
8704;SDS011;4389;41.932;25.904;2023-06-10T07:21:46;12.57;;;6.13;;
8704;SDS011;4389;41.932;25.904;2023-06-10T07:24:14;10.07;;;5.33;;
8704;SDS011;4389;41.932;25.904;2023-06-10T07:26:41;7.33;;;5.50;;
8704;SDS011;4389;41.932;25.904;2023-06-10T07:29:08;15.80;;;5.70;;
8704;SDS011;4389;41.932;25.904;2023-06-10T07:31:35;11.83;;;6.03;;
8704;SDS011;4389;41.932;25.904;2023-06-10T07:34:01;10.17;;;5.17;;
8704;SDS011;4389;41.932;25.904;2023-06-10T07:36:28;12.53;;;5.90;;
8704;SDS011;4389;41.932;25.904;2023-06-10T07:38:56;10.97;;;5.93;;
8704;SDS011;4389;41.932;25.904;2023-06-10T07:41:23;9.27;;;5.07;;
8704;SDS011;4389;41.932;25.904;2023-06-10T07:43:51;13.45;;;5.00;;
8704;SDS011;4389;41.932;25.904;2023-06-10T07:46:19;11.98;;;4.63;;
8704;SDS011;4389;41.932;25.904;2023-06-10T07:48:47;12.50;;;5.53;;
8704;SDS011;4389;41.932;25.904;2023-06-10T07:51:14;8.70;;;4.43;;
8704;SDS011;4389;41.932;25.904;2023-06-10T07:53:42;7.97;;;4.85;;
8704;SDS011;4389;41.932;25.904;2023-06-10T07:56:11;7.00;;;5.20;;
8704;SDS011;4389;41.932;25.904;2023-06-10T07:58:38;10.80;;;4.78;;
8704;SDS011;4389;41.932;25.904;2023-06-10T08:01:05;9.27;;;4.47;;
8704;SDS011;4389;41.932;25.904;2023-06-10T08:03:32;15.75;;;5.38;;
8704;SDS011;4389;41.932;25.904;2023-06-10T08:05:59;8.05;;;3.85;;
8704;SDS011;4389;41.932;25.904;2023-06-10T08:08:26;13.73;;;4.20;;
8704;SDS011;4389;41.932;25.904;2023-06-10T08:10:53;9.63;;;3.88;;
8704;SDS011;4389;41.932;25.904;2023-06-10T08:13:21;5.63;;;4.15;;
8704;SDS011;4389;41.932;25.904;2023-06-10T08:15:48;7.28;;;4.00;;
8704;SDS011;4389;41.932;25.904;2023-06-10T08:18:15;5.90;;;3.92;;
8704;SDS011;4389;41.932;25.904;2023-06-10T08:20:43;14.88;;;4.65;;
8704;SDS011;4389;41.932;25.904;2023-06-10T08:23:09;10.13;;;3.65;;
8704;SDS011;4389;41.932;25.904;2023-06-10T08:25:36;6.53;;;3.70;;
8704;SDS011;4389;41.932;25.904;2023-06-10T08:28:03;7.35;;;4.00;;
8704;SDS011;4389;41.932;25.904;2023-06-10T08:30:31;4.00;;;3.50;;
8704;SDS011;4389;41.932;25.904;2023-06-10T08:32:59;7.35;;;3.58;;
8704;SDS011;4389;41.932;25.904;2023-06-10T08:35:25;4.40;;;3.97;;
8704;SDS011;4389;41.932;25.904;2023-06-10T08:37:52;5.65;;;3.47;;
8704;SDS011;4389;41.932;25.904;2023-06-10T08:40:19;5.45;;;3.70;;
8704;SDS011;4389;41.932;25.904;2023-06-10T08:42:48;10.85;;;4.15;;
8704;SDS011;4389;41.932;25.904;2023-06-10T08:45:20;4.07;;;3.22;;
8704;SDS011;4389;41.932;25.904;2023-06-10T08:47:51;7.53;;;3.67;;
8704;SDS011;4389;41.932;25.904;2023-06-10T08:50:20;5.88;;;3.55;;
8704;SDS011;4389;41.932;25.904;2023-06-10T08:52:48;4.30;;;3.60;;
8704;SDS011;4389;41.932;25.904;2023-06-10T08:55:21;5.50;;;4.30;;
8704;SDS011;4389;41.932;25.904;2023-06-10T08:57:53;7.70;;;3.58;;
8704;SDS011;4389;41.932;25.904;2023-06-10T09:00:20;13.52;;;4.57;;
8704;SDS011;4389;41.932;25.904;2023-06-10T09:02:48;6.32;;;3.65;;
8704;SDS011;4389;41.932;25.904;2023-06-10T09:05:17;8.27;;;4.10;;
8704;SDS011;4389;41.932;25.904;2023-06-10T09:07:45;13.43;;;3.90;;
8704;SDS011;4389;41.932;25.904;2023-06-10T09:10:13;4.18;;;3.05;;
8704;SDS011;4389;41.932;25.904;2023-06-10T09:12:41;6.63;;;3.28;;
8704;SDS011;4389;41.932;25.904;2023-06-10T09:15:08;7.15;;;3.40;;
8704;SDS011;4389;41.932;25.904;2023-06-10T09:17:37;64.57;;;7.18;;
8704;SDS011;4389;41.932;25.904;2023-06-10T09:20:06;4.38;;;3.20;;
8704;SDS011;4389;41.932;25.904;2023-06-10T09:22:35;11.77;;;3.85;;
8704;SDS011;4389;41.932;25.904;2023-06-10T09:25:02;8.05;;;3.00;;
8704;SDS011;4389;41.932;25.904;2023-06-10T09:27:30;4.47;;;3.03;;
8704;SDS011;4389;41.932;25.904;2023-06-10T09:29:58;3.20;;;2.85;;
8704;SDS011;4389;41.932;25.904;2023-06-10T09:32:25;6.35;;;2.67;;
8704;SDS011;4389;41.932;25.904;2023-06-10T09:34:53;3.10;;;2.80;;
8704;SDS011;4389;41.932;25.904;2023-06-10T09:37:20;4.25;;;3.00;;
8704;SDS011;4389;41.932;25.904;2023-06-10T09:40:02;3.42;;;2.83;;
8704;SDS011;4389;41.932;25.904;2023-06-10T09:42:32;4.47;;;2.97;;
8704;SDS011;4389;41.932;25.904;2023-06-10T09:44:59;7.57;;;3.20;;
8704;SDS011;4389;41.932;25.904;2023-06-10T09:47:26;3.50;;;3.00;;
8704;SDS011;4389;41.932;25.904;2023-06-10T09:49:53;7.68;;;3.05;;
8704;SDS011;4389;41.932;25.904;2023-06-10T09:52:23;8.07;;;3.28;;
8704;SDS011;4389;41.932;25.904;2023-06-10T09:54:51;6.25;;;3.08;;
8704;SDS011;4389;41.932;25.904;2023-06-10T09:57:19;7.00;;;2.97;;
8704;SDS011;4389;41.932;25.904;2023-06-10T09:59:47;4.93;;;3.22;;
8704;SDS011;4389;41.932;25.904;2023-06-10T10:02:18;6.07;;;3.67;;
8704;SDS011;4389;41.932;25.904;2023-06-10T10:04:46;9.15;;;3.00;;
8704;SDS011;4389;41.932;25.904;2023-06-10T10:07:13;11.60;;;10.38;;
8704;SDS011;4389;41.932;25.904;2023-06-10T10:09:40;3.38;;;2.72;;
8704;SDS011;4389;41.932;25.904;2023-06-10T10:12:09;9.25;;;3.10;;
8704;SDS011;4389;41.932;25.904;2023-06-10T10:14:39;13.00;;;3.38;;
8704;SDS011;4389;41.932;25.904;2023-06-10T10:17:12;6.25;;;3.08;;
8704;SDS011;4389;41.932;25.904;2023-06-10T10:19:43;6.45;;;3.25;;
8704;SDS011;4389;41.932;25.904;2023-06-10T10:22:15;7.03;;;2.70;;
8704;SDS011;4389;41.932;25.904;2023-06-10T10:24:47;4.10;;;2.70;;
8704;SDS011;4389;41.932;25.904;2023-06-10T10:27:17;4.97;;;2.75;;
8704;SDS011;4389;41.932;25.904;2023-06-10T10:29:49;7.63;;;3.05;;
8704;SDS011;4389;41.932;25.904;2023-06-10T10:32:20;9.20;;;3.22;;
8704;SDS011;4389;41.932;25.904;2023-06-10T10:34:56;6.28;;;3.50;;
8704;SDS011;4389;41.932;25.904;2023-06-10T10:37:31;5.55;;;3.28;;
8704;SDS011;4389;41.932;25.904;2023-06-10T10:39:58;7.53;;;3.65;;
8704;SDS011;4389;41.932;25.904;2023-06-10T10:42:26;5.30;;;3.55;;
8704;SDS011;4389;41.932;25.904;2023-06-10T10:44:55;3.72;;;3.10;;
8704;SDS011;4389;41.932;25.904;2023-06-10T10:47:22;3.72;;;3.22;;
8704;SDS011;4389;41.932;25.904;2023-06-10T10:49:54;5.28;;;3.10;;
8704;SDS011;4389;41.932;25.904;2023-06-10T10:52:24;4.93;;;3.20;;
8704;SDS011;4389;41.932;25.904;2023-06-10T10:54:52;3.75;;;3.30;;
8704;SDS011;4389;41.932;25.904;2023-06-10T10:57:20;7.53;;;3.22;;
8704;SDS011;4389;41.932;25.904;2023-06-10T10:59:52;4.78;;;3.83;;
8704;SDS011;4389;41.932;25.904;2023-06-10T11:02:34;7.88;;;3.20;;
8704;SDS011;4389;41.932;25.904;2023-06-10T11:05:04;6.60;;;3.30;;
8704;SDS011;4389;41.932;25.904;2023-06-10T11:07:32;4.07;;;3.03;;
8704;SDS011;4389;41.932;25.904;2023-06-10T11:10:00;7.97;;;3.10;;
8704;SDS011;4389;41.932;25.904;2023-06-10T11:12:40;9.90;;;3.40;;
8704;SDS011;4389;41.932;25.904;2023-06-10T11:15:10;7.90;;;2.80;;
8704;SDS011;4389;41.932;25.904;2023-06-10T11:17:36;5.18;;;3.60;;
8704;SDS011;4389;41.932;25.904;2023-06-10T11:20:03;7.20;;;3.85;;
8704;SDS011;4389;41.932;25.904;2023-06-10T11:22:32;7.03;;;4.00;;
8704;SDS011;4389;41.932;25.904;2023-06-10T11:24:59;7.10;;;3.50;;
8704;SDS011;4389;41.932;25.904;2023-06-10T11:27:26;4.90;;;3.80;;
8704;SDS011;4389;41.932;25.904;2023-06-10T11:30:21;3.95;;;3.50;;
8704;SDS011;4389;41.932;25.904;2023-06-10T11:32:52;6.70;;;4.72;;
8704;SDS011;4389;41.932;25.904;2023-06-10T11:35:19;22.33;;;5.13;;
8704;SDS011;4389;41.932;25.904;2023-06-10T11:37:49;8.45;;;3.65;;
8704;SDS011;4389;41.932;25.904;2023-06-10T11:40:17;6.57;;;3.47;;
8704;SDS011;4389;41.932;25.904;2023-06-10T11:42:43;6.93;;;3.42;;
8704;SDS011;4389;41.932;25.904;2023-06-10T11:45:14;5.22;;;3.58;;
8704;SDS011;4389;41.932;25.904;2023-06-10T11:47:56;4.60;;;3.33;;
8704;SDS011;4389;41.932;25.904;2023-06-10T11:50:30;13.48;;;4.00;;
8704;SDS011;4389;41.932;25.904;2023-06-10T11:52:57;5.50;;;3.65;;
8704;SDS011;4389;41.932;25.904;2023-06-10T11:55:24;6.38;;;3.47;;
8704;SDS011;4389;41.932;25.904;2023-06-10T11:57:51;4.88;;;3.33;;
8704;SDS011;4389;41.932;25.904;2023-06-10T12:00:22;4.20;;;3.35;;
8704;SDS011;4389;41.932;25.904;2023-06-10T12:02:56;5.35;;;3.50;;
8704;SDS011;4389;41.932;25.904;2023-06-10T12:05:23;4.47;;;3.50;;
8704;SDS011;4389;41.932;25.904;2023-06-10T12:10:39;3.88;;;3.22;;
8704;SDS011;4389;41.932;25.904;2023-06-10T12:13:07;4.35;;;3.95;;
8704;SDS011;4389;41.932;25.904;2023-06-10T12:15:34;3.85;;;3.25;;
8704;SDS011;4389;41.932;25.904;2023-06-10T12:18:03;3.63;;;3.30;;
8704;SDS011;4389;41.932;25.904;2023-06-10T12:20:30;4.78;;;4.00;;
8704;SDS011;4389;41.932;25.904;2023-06-10T12:22:58;5.82;;;3.55;;
8704;SDS011;4389;41.932;25.904;2023-06-10T12:25:26;4.78;;;3.55;;
8704;SDS011;4389;41.932;25.904;2023-06-10T12:27:55;5.30;;;3.70;;
8704;SDS011;4389;41.932;25.904;2023-06-10T12:30:23;4.47;;;3.55;;
8704;SDS011;4389;41.932;25.904;2023-06-10T12:32:52;15.73;;;3.97;;
8704;SDS011;4389;41.932;25.904;2023-06-10T12:35:22;7.07;;;3.90;;
8704;SDS011;4389;41.932;25.904;2023-06-10T12:37:57;4.45;;;3.40;;
8704;SDS011;4389;41.932;25.904;2023-06-10T12:40:26;6.90;;;3.72;;
8704;SDS011;4389;41.932;25.904;2023-06-10T12:42:54;7.47;;;3.85;;
8704;SDS011;4389;41.932;25.904;2023-06-10T12:45:27;6.45;;;3.63;;
8704;SDS011;4389;41.932;25.904;2023-06-10T12:48:03;7.78;;;3.30;;
8704;SDS011;4389;41.932;25.904;2023-06-10T12:50:33;12.88;;;3.95;;
8704;SDS011;4389;41.932;25.904;2023-06-10T12:53:00;8.05;;;3.83;;
8704;SDS011;4389;41.932;25.904;2023-06-10T12:55:26;4.03;;;3.63;;
8704;SDS011;4389;41.932;25.904;2023-06-10T12:57:54;3.63;;;3.20;;
8704;SDS011;4389;41.932;25.904;2023-06-10T13:00:22;12.88;;;3.53;;
8704;SDS011;4389;41.932;25.904;2023-06-10T13:02:51;5.15;;;3.63;;
8704;SDS011;4389;41.932;25.904;2023-06-10T13:05:18;8.23;;;3.75;;
8704;SDS011;4389;41.932;25.904;2023-06-10T13:07:47;7.68;;;3.70;;
8704;SDS011;4389;41.932;25.904;2023-06-10T13:10:14;5.05;;;3.20;;
8704;SDS011;4389;41.932;25.904;2023-06-10T13:12:42;4.82;;;3.80;;
8704;SDS011;4389;41.932;25.904;2023-06-10T13:15:09;7.13;;;3.45;;
8704;SDS011;4389;41.932;25.904;2023-06-10T13:17:37;8.48;;;3.20;;
8704;SDS011;4389;41.932;25.904;2023-06-10T13:20:04;7.20;;;3.60;;
8704;SDS011;4389;41.932;25.904;2023-06-10T13:22:33;3.97;;;3.45;;
8704;SDS011;4389;41.932;25.904;2023-06-10T13:25:03;6.32;;;3.65;;
8704;SDS011;4389;41.932;25.904;2023-06-10T13:27:32;13.88;;;4.50;;
8704;SDS011;4389;41.932;25.904;2023-06-10T13:29:58;9.32;;;3.70;;
8704;SDS011;4389;41.932;25.904;2023-06-10T13:32:26;7.90;;;3.60;;
8704;SDS011;4389;41.932;25.904;2023-06-10T13:34:52;7.35;;;3.50;;
8704;SDS011;4389;41.932;25.904;2023-06-10T13:37:19;10.63;;;3.63;;
8704;SDS011;4389;41.932;25.904;2023-06-10T13:39:46;4.93;;;3.70;;
8704;SDS011;4389;41.932;25.904;2023-06-10T13:42:15;3.95;;;3.40;;
8704;SDS011;4389;41.932;25.904;2023-06-10T13:44:41;7.70;;;4.15;;
8704;SDS011;4389;41.932;25.904;2023-06-10T13:47:08;11.02;;;3.45;;
8704;SDS011;4389;41.932;25.904;2023-06-10T13:49:35;10.10;;;3.80;;
8704;SDS011;4389;41.932;25.904;2023-06-10T13:52:02;4.68;;;3.60;;
8704;SDS011;4389;41.932;25.904;2023-06-10T13:54:29;4.90;;;3.40;;
8704;SDS011;4389;41.932;25.904;2023-06-10T13:56:56;11.00;;;3.70;;
8704;SDS011;4389;41.932;25.904;2023-06-10T13:59:25;4.25;;;3.40;;
8704;SDS011;4389;41.932;25.904;2023-06-10T14:01:52;4.22;;;3.63;;
8704;SDS011;4389;41.932;25.904;2023-06-10T14:04:19;4.93;;;3.47;;
8704;SDS011;4389;41.932;25.904;2023-06-10T14:06:46;11.32;;;3.88;;
8704;SDS011;4389;41.932;25.904;2023-06-10T14:09:13;5.50;;;3.53;;
8704;SDS011;4389;41.932;25.904;2023-06-10T14:11:41;10.02;;;5.65;;
8704;SDS011;4389;41.932;25.904;2023-06-10T14:14:09;7.30;;;5.30;;
8704;SDS011;4389;41.932;25.904;2023-06-10T14:16:37;7.57;;;4.38;;
8704;SDS011;4389;41.932;25.904;2023-06-10T14:19:03;5.45;;;3.50;;
8704;SDS011;4389;41.932;25.904;2023-06-10T14:21:30;7.38;;;3.53;;
8704;SDS011;4389;41.932;25.904;2023-06-10T14:23:57;7.20;;;3.50;;
8704;SDS011;4389;41.932;25.904;2023-06-10T14:26:24;7.53;;;3.60;;
8704;SDS011;4389;41.932;25.904;2023-06-10T14:28:51;9.48;;;3.63;;
8704;SDS011;4389;41.932;25.904;2023-06-10T14:31:18;6.90;;;3.35;;
8704;SDS011;4389;41.932;25.904;2023-06-10T14:33:46;8.00;;;3.92;;
8704;SDS011;4389;41.932;25.904;2023-06-10T14:36:13;13.60;;;4.25;;
8704;SDS011;4389;41.932;25.904;2023-06-10T14:38:40;5.35;;;3.38;;
8704;SDS011;4389;41.932;25.904;2023-06-10T14:41:06;4.78;;;3.42;;
8704;SDS011;4389;41.932;25.904;2023-06-10T14:43:33;7.47;;;3.70;;
8704;SDS011;4389;41.932;25.904;2023-06-10T14:46:00;5.35;;;3.53;;
8704;SDS011;4389;41.932;25.904;2023-06-10T14:48:27;5.25;;;3.50;;
8704;SDS011;4389;41.932;25.904;2023-06-10T14:50:55;4.70;;;4.05;;
8704;SDS011;4389;41.932;25.904;2023-06-10T14:53:22;7.22;;;4.30;;
8704;SDS011;4389;41.932;25.904;2023-06-10T14:55:48;6.97;;;3.30;;
8704;SDS011;4389;41.932;25.904;2023-06-10T14:58:15;8.88;;;3.83;;
8704;SDS011;4389;41.932;25.904;2023-06-10T15:00:42;8.10;;;4.22;;
8704;SDS011;4389;41.932;25.904;2023-06-10T15:03:09;5.25;;;3.63;;
8704;SDS011;4389;41.932;25.904;2023-06-10T15:05:36;9.50;;;3.95;;